sensor_id;sensor_type;location;lat;lon;timestamp;pressure;altitude;pressure_sealevel;temperature;humidity
48872;BME280;36154;51.674;7.824;2023-02-19T00:01:08;100766.66;;;20.09;52.75
48872;BME280;36154;51.674;7.824;2023-02-19T00:03:35;100780.31;;;20.15;52.66
48872;BME280;36154;51.674;7.824;2023-02-19T00:06:04;100784.66;;;20.14;52.72
48872;BME280;36154;51.674;7.824;2023-02-19T00:08:30;100784.66;;;20.14;52.51
48872;BME280;36154;51.674;7.824;2023-02-19T00:11:05;100784.66;;;20.14;52.52
48872;BME280;36154;51.674;7.824;2023-02-19T00:13:38;100767.41;;;20.13;52.57
48872;BME280;36154;51.674;7.824;2023-02-19T00:16:06;100779.47;;;20.14;52.53
48872;BME280;36154;51.674;7.824;2023-02-19T00:18:31;100779.47;;;20.14;52.77
48872;BME280;36154;51.674;7.824;2023-02-19T00:20:57;100791.53;;;20.15;52.58
48872;BME280;36154;51.674;7.824;2023-02-19T00:23:22;100782.94;;;20.13;52.63
48872;BME280;36154;51.674;7.824;2023-02-19T00:25:47;100790.66;;;20.15;52.55
48872;BME280;36154;51.674;7.824;2023-02-19T00:28:13;100795.00;;;20.14;52.53
48872;BME280;36154;51.674;7.824;2023-02-19T00:30:38;100794.13;;;20.15;52.47
48872;BME280;36154;51.674;7.824;2023-02-19T00:33:03;100784.66;;;20.14;52.54
48872;BME280;36154;51.674;7.824;2023-02-19T00:35:29;100801.88;;;20.15;52.45
48872;BME280;36154;51.674;7.824;2023-02-19T00:37:54;100784.66;;;20.14;52.46
48872;BME280;36154;51.674;7.824;2023-02-19T00:40:19;100774.31;;;20.14;52.49
48872;BME280;36154;51.674;7.824;2023-02-19T00:42:45;100769.13;;;20.14;52.49
48872;BME280;36154;51.674;7.824;2023-02-19T00:45:10;100767.38;;;20.15;52.29
48872;BME280;36154;51.674;7.824;2023-02-19T00:47:35;100774.31;;;20.14;52.36
48872;BME280;36154;51.674;7.824;2023-02-19T00:50:00;100776.00;;;20.15;52.42
48872;BME280;36154;51.674;7.824;2023-02-19T00:52:26;100769.13;;;20.14;52.33
48872;BME280;36154;51.674;7.824;2023-02-19T00:54:51;100767.41;;;20.13;52.23
48872;BME280;36154;51.674;7.824;2023-02-19T00:57:16;100774.31;;;20.14;52.47
48872;BME280;36154;51.674;7.824;2023-02-19T00:59:41;100777.75;;;20.13;52.38
48872;BME280;36154;51.674;7.824;2023-02-19T01:02:07;100774.34;;;20.12;52.43
48872;BME280;36154;51.674;7.824;2023-02-19T01:04:32;100774.31;;;20.14;52.33
48872;BME280;36154;51.674;7.824;2023-02-19T01:06:57;100779.47;;;20.14;52.24
48872;BME280;36154;51.674;7.824;2023-02-19T01:09:22;100778.63;;;20.13;52.33
48872;BME280;36154;51.674;7.824;2023-02-19T01:11:48;100779.47;;;20.14;52.34
48872;BME280;36154;51.674;7.824;2023-02-19T01:14:13;100776.88;;;20.14;52.43
48872;BME280;36154;51.674;7.824;2023-02-19T01:16:38;100782.94;;;20.13;52.19
48872;BME280;36154;51.674;7.824;2023-02-19T01:19:04;100779.47;;;20.14;52.25
48872;BME280;36154;51.674;7.824;2023-02-19T01:21:29;100776.00;;;20.15;52.24
48872;BME280;36154;51.674;7.824;2023-02-19T01:23:56;100776.84;;;20.16;52.09
48872;BME280;36154;51.674;7.824;2023-02-19T01:26:24;100780.28;;;20.16;52.38
48872;BME280;36154;51.674;7.824;2023-02-19T01:28:50;100778.59;;;20.15;52.09
48872;BME280;36154;51.674;7.824;2023-02-19T01:31:18;100770.84;;;20.15;52.13
48872;BME280;36154;51.674;7.824;2023-02-19T01:33:45;100769.97;;;20.15;52.06
48872;BME280;36154;51.674;7.824;2023-02-19T01:36:11;100771.72;;;20.14;52.17
48872;BME280;36154;51.674;7.824;2023-02-19T01:38:36;100765.66;;;20.15;52.10
48872;BME280;36154;51.674;7.824;2023-02-19T01:41:05;100764.78;;;20.15;52.13
48872;BME280;36154;51.674;7.824;2023-02-19T01:43:32;100764.03;;;20.11;52.02
48872;BME280;36154;51.674;7.824;2023-02-19T01:45:58;100764.81;;;20.13;52.10
48872;BME280;36154;51.674;7.824;2023-02-19T01:48:35;100770.91;;;20.12;51.96
48872;BME280;36154;51.674;7.824;2023-02-19T01:51:05;100772.59;;;20.13;51.89
48872;BME280;36154;51.674;7.824;2023-02-19T01:53:36;100768.28;;;20.13;51.98
48872;BME280;36154;51.674;7.824;2023-02-19T01:56:02;100759.69;;;20.11;52.05
48872;BME280;36154;51.674;7.824;2023-02-19T01:58:31;100760.56;;;20.12;52.11
48872;BME280;36154;51.674;7.824;2023-02-19T02:00:58;100767.41;;;20.13;52.00
48872;BME280;36154;51.674;7.824;2023-02-19T02:03:25;100764.03;;;20.11;51.89
48872;BME280;36154;51.674;7.824;2023-02-19T02:06:01;100751.91;;;20.13;51.86
48872;BME280;36154;51.674;7.824;2023-02-19T02:08:29;100752.81;;;20.12;51.90
48872;BME280;36154;51.674;7.824;2023-02-19T02:11:13;100765.75;;;20.12;52.00
48872;BME280;36154;51.674;7.824;2023-02-19T02:13:39;100757.06;;;20.13;51.80
48872;BME280;36154;51.674;7.824;2023-02-19T02:24:32;100763.19;;;20.10;51.89
48872;BME280;36154;51.674;7.824;2023-02-19T02:27:53;100759.75;;;20.10;51.75
48872;BME280;36154;51.674;7.824;2023-02-19T02:33:39;100765.81;;;20.09;51.82
48872;BME280;36154;51.674;7.824;2023-02-19T02:36:10;100760.63;;;20.09;51.88
48872;BME280;36154;51.674;7.824;2023-02-19T02:38:40;100762.38;;;20.08;51.76
48872;BME280;36154;51.674;7.824;2023-02-19T02:41:07;100771.84;;;20.08;51.80
48872;BME280;36154;51.674;7.824;2023-02-19T02:43:32;100771.84;;;20.08;51.90
48872;BME280;36154;51.674;7.824;2023-02-19T02:45:57;100777.88;;;20.10;51.79
48872;BME280;36154;51.674;7.824;2023-02-19T02:51:30;100767.56;;;20.08;51.67
48872;BME280;36154;51.674;7.824;2023-02-19T02:54:01;100763.25;;;20.07;51.75
48872;BME280;36154;51.674;7.824;2023-02-19T02:56:48;100780.50;;;20.08;51.88
48872;BME280;36154;51.674;7.824;2023-02-19T02:59:20;100781.31;;;20.09;51.52
48872;BME280;36154;51.674;7.824;2023-02-19T03:01:56;100780.50;;;20.08;51.59
48872;BME280;36154;51.674;7.824;2023-02-19T03:05:04;100777.91;;;20.08;51.64
48872;BME280;36154;51.674;7.824;2023-02-19T03:07:59;100779.63;;;20.08;51.42
48872;BME280;36154;51.674;7.824;2023-02-19T03:10:39;100781.34;;;20.07;51.43
48872;BME280;36154;51.674;7.824;2023-02-19T03:13:09;100769.28;;;20.08;51.58
48872;BME280;36154;51.674;7.824;2023-02-19T03:16:07;100772.75;;;20.07;51.46
48872;BME280;36154;51.674;7.824;2023-02-19T03:18:55;100772.75;;;20.07;51.55
48872;BME280;36154;51.674;7.824;2023-02-19T03:21:42;100779.63;;;20.08;51.66
48872;BME280;36154;51.674;7.824;2023-02-19T03:24:10;100782.19;;;20.08;51.59
48872;BME280;36154;51.674;7.824;2023-02-19T03:26:57;100767.59;;;20.07;51.46
48872;BME280;36154;51.674;7.824;2023-02-19T03:29:25;100778.78;;;20.07;51.53
48872;BME280;36154;51.674;7.824;2023-02-19T03:31:55;100785.69;;;20.07;51.61
48872;BME280;36154;51.674;7.824;2023-02-19T03:34:25;100786.50;;;20.09;51.35
48872;BME280;36154;51.674;7.824;2023-02-19T03:37:18;100795.13;;;20.08;51.41
48872;BME280;36154;51.674;7.824;2023-02-19T03:39:46;100802.03;;;20.09;51.49
48872;BME280;36154;51.674;7.824;2023-02-19T03:42:34;100800.31;;;20.08;51.58
48872;BME280;36154;51.674;7.824;2023-02-19T03:53:11;100808.97;;;20.07;51.32
48872;BME280;36154;51.674;7.824;2023-02-19T03:55:48;100814.97;;;20.07;51.44
48872;BME280;36154;51.674;7.824;2023-02-19T03:58:27;100821.00;;;20.08;51.58
48872;BME280;36154;51.674;7.824;2023-02-19T04:01:03;100823.59;;;20.08;51.25
48872;BME280;36154;51.674;7.824;2023-02-19T04:03:45;100828.75;;;20.08;51.41
48872;BME280;36154;51.674;7.824;2023-02-19T04:06:14;100838.28;;;20.06;51.50
48872;BME280;36154;51.674;7.824;2023-02-19T04:08:45;100841.78;;;20.05;51.32
48872;BME280;36154;51.674;7.824;2023-02-19T04:11:13;100829.69;;;20.05;51.37
48872;BME280;36154;51.674;7.824;2023-02-19T04:13:44;100840.06;;;20.04;51.32
48872;BME280;36154;51.674;7.824;2023-02-19T04:16:19;100844.31;;;20.06;51.26
48872;BME280;36154;51.674;7.824;2023-02-19T04:18:49;100844.31;;;20.06;51.32
48872;BME280;36154;51.674;7.824;2023-02-19T04:21:17;100844.31;;;20.06;51.32
48872;BME280;36154;51.674;7.824;2023-02-19T04:23:44;100855.53;;;20.07;51.12
48872;BME280;36154;51.674;7.824;2023-02-19T04:26:11;100846.97;;;20.05;51.26
48872;BME280;36154;51.674;7.824;2023-02-19T04:28:38;100860.69;;;20.07;51.23
48872;BME280;36154;51.674;7.824;2023-02-19T04:31:04;100867.56;;;20.08;51.20
48872;BME280;36154;51.674;7.824;2023-02-19T04:33:29;100860.69;;;20.07;51.15
48872;BME280;36154;51.674;7.824;2023-02-19T04:35:55;100866.72;;;20.07;51.24
48872;BME280;36154;51.674;7.824;2023-02-19T04:38:20;100864.97;;;20.08;51.29
48872;BME280;36154;51.674;7.824;2023-02-19T04:40:45;100879.63;;;20.09;51.08
48872;BME280;36154;51.674;7.824;2023-02-19T04:43:13;100866.78;;;20.04;51.02
48872;BME280;36154;51.674;7.824;2023-02-19T04:45:38;100883.97;;;20.07;51.04
48872;BME280;36154;51.674;7.824;2023-02-19T04:48:04;100871.06;;;20.07;51.20
48872;BME280;36154;51.674;7.824;2023-02-19T04:50:32;100883.97;;;20.07;51.28
48872;BME280;36154;51.674;7.824;2023-02-19T04:52:57;100893.44;;;20.08;51.30
48872;BME280;36154;51.674;7.824;2023-02-19T04:55:22;100898.59;;;20.08;51.11
48872;BME280;36154;51.674;7.824;2023-02-19T04:57:48;100908.94;;;20.08;51.03
48872;BME280;36154;51.674;7.824;2023-02-19T05:00:16;100900.41;;;20.04;50.93
48872;BME280;36154;51.674;7.824;2023-02-19T05:02:42;100907.25;;;20.07;51.05
48872;BME280;36154;51.674;7.824;2023-02-19T05:05:07;100910.72;;;20.06;51.06
48872;BME280;36154;51.674;7.824;2023-02-19T05:07:33;100903.88;;;20.05;51.04
48872;BME280;36154;51.674;7.824;2023-02-19T05:09:58;100910.72;;;20.06;50.92
48872;BME280;36154;51.674;7.824;2023-02-19T05:12:24;100919.28;;;20.08;50.92
48872;BME280;36154;51.674;7.824;2023-02-19T05:14:49;100914.13;;;20.08;50.97
48872;BME280;36154;51.674;7.824;2023-02-19T05:17:15;100917.59;;;20.07;51.05
48872;BME280;36154;51.674;7.824;2023-02-19T05:19:40;100928.78;;;20.07;50.98
48872;BME280;36154;51.674;7.824;2023-02-19T05:22:08;100929.63;;;20.08;51.01
48872;BME280;36154;51.674;7.824;2023-02-19T05:24:33;100932.22;;;20.08;50.89
48872;BME280;36154;51.674;7.824;2023-02-19T05:26:58;100932.25;;;20.06;50.87
48872;BME280;36154;51.674;7.824;2023-02-19T05:29:24;100938.28;;;20.07;50.84
48872;BME280;36154;51.674;7.824;2023-02-19T05:31:49;100945.25;;;20.05;50.77
48872;BME280;36154;51.674;7.824;2023-02-19T05:34:14;100948.66;;;20.07;50.85
48872;BME280;36154;51.674;7.824;2023-02-19T05:36:39;100948.66;;;20.07;50.78
48872;BME280;36154;51.674;7.824;2023-02-19T05:39:06;100949.47;;;20.07;50.94
48872;BME280;36154;51.674;7.824;2023-02-19T05:41:32;100953.81;;;20.07;50.85
48872;BME280;36154;51.674;7.824;2023-02-19T05:43:57;100964.16;;;20.07;50.87
48872;BME280;36154;51.674;7.824;2023-02-19T05:46:25;100953.81;;;20.07;50.76
48872;BME280;36154;51.674;7.824;2023-02-19T05:48:52;100961.56;;;20.07;50.70
48872;BME280;36154;51.674;7.824;2023-02-19T05:51:19;100968.47;;;20.06;50.90
48872;BME280;36154;51.674;7.824;2023-02-19T05:53:45;100967.63;;;20.06;50.74
48872;BME280;36154;51.674;7.824;2023-02-19T05:58:56;100977.09;;;20.07;50.84
48872;BME280;36154;51.674;7.824;2023-02-19T06:01:25;100977.13;;;20.05;50.80
48872;BME280;36154;51.674;7.824;2023-02-19T06:03:51;100980.56;;;20.06;50.87
48872;BME280;36154;51.674;7.824;2023-02-19T06:06:17;100982.28;;;20.07;50.75
48872;BME280;36154;51.674;7.824;2023-02-19T06:08:43;100990.03;;;20.07;50.74
48872;BME280;36154;51.674;7.824;2023-02-19T06:11:08;100996.97;;;20.05;50.84
48872;BME280;36154;51.674;7.824;2023-02-19T06:13:34;100998.63;;;20.07;50.85
48872;BME280;36154;51.674;7.824;2023-02-19T06:16:02;100995.22;;;20.07;50.82
48872;BME280;36154;51.674;7.824;2023-02-19T06:18:29;100990.91;;;20.06;50.82
48872;BME280;36154;51.674;7.824;2023-02-19T06:21:05;101001.25;;;20.06;50.63
48872;BME280;36154;51.674;7.824;2023-02-19T06:23:31;101009.00;;;20.06;50.69
48872;BME280;36154;51.674;7.824;2023-02-19T06:26:07;101008.13;;;20.07;50.71
48872;BME280;36154;51.674;7.824;2023-02-19T06:28:33;101002.16;;;20.05;50.67
48872;BME280;36154;51.674;7.824;2023-02-19T06:30:58;101009.00;;;20.06;50.69
48872;BME280;36154;51.674;7.824;2023-02-19T06:33:27;101007.31;;;20.05;50.71
48872;BME280;36154;51.674;7.824;2023-02-19T06:35:53;101009.91;;;20.05;50.57
48872;BME280;36154;51.674;7.824;2023-02-19T06:38:20;101009.91;;;20.05;50.72
48872;BME280;36154;51.674;7.824;2023-02-19T06:40:46;101010.75;;;20.05;50.79
48872;BME280;36154;51.674;7.824;2023-02-19T06:43:11;101005.66;;;20.01;50.74
48872;BME280;36154;51.674;7.824;2023-02-19T06:45:36;101024.53;;;20.06;50.83
48872;BME280;36154;51.674;7.824;2023-02-19T06:48:02;101028.84;;;20.05;50.62
48872;BME280;36154;51.674;7.824;2023-02-19T06:50:27;101027.13;;;20.06;50.61
48872;BME280;36154;51.674;7.824;2023-02-19T06:52:52;101028.00;;;20.05;50.68
48872;BME280;36154;51.674;7.824;2023-02-19T06:55:17;101029.72;;;20.04;50.58
48872;BME280;36154;51.674;7.824;2023-02-19T06:57:43;101032.31;;;20.04;50.66
48872;BME280;36154;51.674;7.824;2023-02-19T07:00:09;101035.78;;;20.05;50.52
48872;BME280;36154;51.674;7.824;2023-02-19T07:02:36;101039.25;;;20.04;50.59
48872;BME280;36154;51.674;7.824;2023-02-19T07:05:01;101050.41;;;20.06;50.68
48872;BME280;36154;51.674;7.824;2023-02-19T07:07:27;101053.88;;;20.05;50.61
48872;BME280;36154;51.674;7.824;2023-02-19T07:09:52;101059.06;;;20.05;50.54
48872;BME280;36154;51.674;7.824;2023-02-19T07:12:17;101059.06;;;20.05;50.46
48872;BME280;36154;51.674;7.824;2023-02-19T07:14:43;101065.91;;;20.06;50.48
48872;BME280;36154;51.674;7.824;2023-02-19T07:17:08;101075.41;;;20.05;50.64
48872;BME280;36154;51.674;7.824;2023-02-19T07:19:33;101089.22;;;20.04;50.61
48872;BME280;36154;51.674;7.824;2023-02-19T07:21:59;101084.94;;;20.05;50.49
48872;BME280;36154;51.674;7.824;2023-02-19T07:24:24;101090.09;;;20.05;50.27
48872;BME280;36154;51.674;7.824;2023-02-19T07:26:49;101094.41;;;20.04;50.49
48872;BME280;36154;51.674;7.824;2023-02-19T07:29:15;101094.41;;;20.04;50.45
48872;BME280;36154;51.674;7.824;2023-02-19T07:31:41;101093.56;;;20.04;50.61
48872;BME280;36154;51.674;7.824;2023-02-19T07:34:07;101099.56;;;20.04;50.45
48872;BME280;36154;51.674;7.824;2023-02-19T07:36:32;101112.50;;;20.04;50.40
48872;BME280;36154;51.674;7.824;2023-02-19T07:38:58;101118.56;;;20.05;50.65
48872;BME280;36154;51.674;7.824;2023-02-19T07:41:24;101119.41;;;20.04;50.59
48872;BME280;36154;51.674;7.824;2023-02-19T07:43:50;101132.38;;;20.02;50.37
48872;BME280;36154;51.674;7.824;2023-02-19T07:46:15;101142.69;;;20.04;50.50
48872;BME280;36154;51.674;7.824;2023-02-19T07:48:41;101137.53;;;20.04;50.48
48872;BME280;36154;51.674;7.824;2023-02-19T07:51:11;101137.53;;;20.04;50.62
48872;BME280;36154;51.674;7.824;2023-02-19T07:53:37;101140.09;;;20.04;50.28
48872;BME280;36154;51.674;7.824;2023-02-19T07:56:04;101140.94;;;20.04;50.53
48872;BME280;36154;51.674;7.824;2023-02-19T07:58:31;101136.66;;;20.05;50.35
48872;BME280;36154;51.674;7.824;2023-02-19T08:00:57;101130.59;;;20.04;50.45
48872;BME280;36154;51.674;7.824;2023-02-19T08:03:30;101135.78;;;20.04;50.54
48872;BME280;36154;51.674;7.824;2023-02-19T08:05:56;101145.28;;;20.04;50.33
48872;BME280;36154;51.674;7.824;2023-02-19T08:08:21;101145.28;;;20.04;50.40
48872;BME280;36154;51.674;7.824;2023-02-19T08:10:46;101156.47;;;20.04;50.13
48872;BME280;36154;51.674;7.824;2023-02-19T08:13:33;101158.22;;;20.04;50.41
48872;BME280;36154;51.674;7.824;2023-02-19T08:18:30;101170.31;;;20.03;50.46
48872;BME280;36154;51.674;7.824;2023-02-19T08:20:57;101178.91;;;20.04;50.34
48872;BME280;36154;51.674;7.824;2023-02-19T08:23:23;101176.31;;;20.04;50.48
48872;BME280;36154;51.674;7.824;2023-02-19T08:25:50;101182.34;;;20.04;50.35
48872;BME280;36154;51.674;7.824;2023-02-19T08:28:16;101180.63;;;20.05;50.42
48872;BME280;36154;51.674;7.824;2023-02-19T08:30:43;101173.75;;;20.04;50.49
48872;BME280;36154;51.674;7.824;2023-02-19T08:33:10;101173.72;;;20.05;50.48
48872;BME280;36154;51.674;7.824;2023-02-19T08:35:36;101174.56;;;20.06;50.46
48872;BME280;36154;51.674;7.824;2023-02-19T08:38:02;101174.56;;;20.06;50.56
48872;BME280;36154;51.674;7.824;2023-02-19T08:40:28;101184.03;;;20.07;50.36
48872;BME280;36154;51.674;7.824;2023-02-19T08:42:54;101181.44;;;20.07;50.44
48872;BME280;36154;51.674;7.824;2023-02-19T08:45:19;101189.22;;;20.07;50.51
48872;BME280;36154;51.674;7.824;2023-02-19T08:47:45;101189.22;;;20.07;50.52
48872;BME280;36154;51.674;7.824;2023-02-19T08:50:11;101189.22;;;20.07;50.31
48872;BME280;36154;51.674;7.824;2023-02-19T08:52:37;101198.66;;;20.08;50.55
48872;BME280;36154;51.674;7.824;2023-02-19T08:55:03;101193.47;;;20.08;50.36
48872;BME280;36154;51.674;7.824;2023-02-19T08:57:29;101191.78;;;20.08;50.20
48872;BME280;36154;51.674;7.824;2023-02-19T08:59:55;101195.19;;;20.09;50.44
48872;BME280;36154;51.674;7.824;2023-02-19T09:02:21;101192.63;;;20.09;50.33
48872;BME280;36154;51.674;7.824;2023-02-19T09:04:47;101202.09;;;20.10;50.42
48872;BME280;36154;51.674;7.824;2023-02-19T09:07:12;101208.94;;;20.11;50.43
48872;BME280;36154;51.674;7.824;2023-02-19T09:09:37;101207.31;;;20.07;50.39
48872;BME280;36154;51.674;7.824;2023-02-19T09:12:08;101214.13;;;20.11;50.48
48872;BME280;36154;51.674;7.824;2023-02-19T09:14:34;101213.28;;;20.10;50.57
48872;BME280;36154;51.674;7.824;2023-02-19T09:17:00;101219.31;;;20.11;50.66
48872;BME280;36154;51.674;7.824;2023-02-19T09:19:27;101226.19;;;20.12;50.59
48872;BME280;36154;51.674;7.824;2023-02-19T09:21:53;101214.13;;;20.11;50.56
48872;BME280;36154;51.674;7.824;2023-02-19T09:24:19;101220.16;;;20.11;50.53
48872;BME280;36154;51.674;7.824;2023-02-19T09:26:47;101226.22;;;20.10;50.40
48872;BME280;36154;51.674;7.824;2023-02-19T09:29:16;101267.59;;;20.12;50.53
48872;BME280;36154;51.674;7.824;2023-02-19T09:31:42;101259.81;;;20.12;50.50
48872;BME280;36154;51.674;7.824;2023-02-19T09:34:07;101267.59;;;20.12;50.56
48872;BME280;36154;51.674;7.824;2023-02-19T09:36:33;101258.09;;;20.12;50.70
48872;BME280;36154;51.674;7.824;2023-02-19T09:38:59;101271.00;;;20.14;50.86
48872;BME280;36154;51.674;7.824;2023-02-19T09:44:32;101294.22;;;20.17;51.01
48872;BME280;36154;51.674;7.824;2023-02-19T09:47:00;101300.22;;;20.19;51.11
48872;BME280;36154;51.674;7.824;2023-02-19T09:49:35;101298.50;;;20.18;51.08
48872;BME280;36154;51.674;7.824;2023-02-19T09:52:11;101316.56;;;20.21;51.06
48872;BME280;36154;51.674;7.824;2023-02-19T09:54:38;101322.59;;;20.23;51.07
48872;BME280;36154;51.674;7.824;2023-02-19T09:57:15;101337.28;;;20.21;48.92
48872;BME280;36154;51.674;7.824;2023-02-19T09:59:45;101345.28;;;20.06;46.50
48872;BME280;36154;51.674;7.824;2023-02-19T10:02:14;101345.56;;;19.87;45.67
48872;BME280;36154;51.674;7.824;2023-02-19T10:04:42;101346.66;;;19.69;45.16
48872;BME280;36154;51.674;7.824;2023-02-19T10:07:11;101354.59;;;19.55;44.57
48872;BME280;36154;51.674;7.824;2023-02-19T10:09:37;101360.81;;;19.41;44.24
48872;BME280;36154;51.674;7.824;2023-02-19T10:12:12;101370.50;;;19.22;43.80
48872;BME280;36154;51.674;7.824;2023-02-19T10:14:42;101380.88;;;19.18;44.34
48872;BME280;36154;51.674;7.824;2023-02-19T10:17:23;101380.00;;;19.21;44.89
48872;BME280;36154;51.674;7.824;2023-02-19T10:19:52;101396.28;;;19.28;45.34
48872;BME280;36154;51.674;7.824;2023-02-19T10:22:18;101399.66;;;19.33;45.72
48872;BME280;36154;51.674;7.824;2023-02-19T10:24:52;101402.19;;;19.37;45.90
48872;BME280;36154;51.674;7.824;2023-02-19T10:27:18;101412.47;;;19.42;46.07
48872;BME280;36154;51.674;7.824;2023-02-19T10:29:45;101421.06;;;19.44;46.37
48872;BME280;36154;51.674;7.824;2023-02-19T10:32:23;101426.19;;;19.47;46.45
48872;BME280;36154;51.674;7.824;2023-02-19T10:37:35;101435.63;;;19.51;46.90
48872;BME280;36154;51.674;7.824;2023-02-19T10:40:13;101436.47;;;19.53;47.00
48872;BME280;36154;51.674;7.824;2023-02-19T10:42:44;101443.31;;;19.56;47.08
48872;BME280;36154;51.674;7.824;2023-02-19T10:45:16;101433.84;;;19.56;47.17
48872;BME280;36154;51.674;7.824;2023-02-19T10:47:45;101441.56;;;19.60;47.15
48872;BME280;36154;51.674;7.824;2023-02-19T10:50:37;101438.09;;;19.62;47.37
48872;BME280;36154;51.674;7.824;2023-02-19T10:53:03;101445.00;;;19.63;47.42
48872;BME280;36154;51.674;7.824;2023-02-19T10:55:30;101459.63;;;19.66;47.42
48872;BME280;36154;51.674;7.824;2023-02-19T10:57:57;101455.31;;;19.66;47.19
48872;BME280;36154;51.674;7.824;2023-02-19T11:00:27;101457.00;;;19.67;47.34
48872;BME280;36154;51.674;7.824;2023-02-19T11:03:19;101469.91;;;19.69;47.51
48872;BME280;36154;51.674;7.824;2023-02-19T11:06:05;101469.06;;;19.70;47.59
48872;BME280;36154;51.674;7.824;2023-02-19T11:08:48;101468.16;;;19.71;47.59
48872;BME280;36154;51.674;7.824;2023-02-19T11:11:31;101481.06;;;19.72;47.58
48872;BME280;36154;51.674;7.824;2023-02-19T11:14:01;101483.66;;;19.74;47.58
48872;BME280;36154;51.674;7.824;2023-02-19T11:16:44;101473.31;;;19.74;47.63
48872;BME280;36154;51.674;7.824;2023-02-19T11:19:36;101478.47;;;19.75;47.73
48872;BME280;36154;51.674;7.824;2023-02-19T11:22:36;101483.63;;;19.77;47.65
48872;BME280;36154;51.674;7.824;2023-02-19T11:27:34;101482.75;;;19.78;47.75
48872;BME280;36154;51.674;7.824;2023-02-19T11:33:18;101493.03;;;19.81;47.95
48872;BME280;36154;51.674;7.824;2023-02-19T11:35:45;101493.03;;;19.81;47.97
48872;BME280;36154;51.674;7.824;2023-02-19T11:38:15;101479.25;;;19.82;48.00
48872;BME280;36154;51.674;7.824;2023-02-19T11:43:34;101488.72;;;19.83;48.01
48872;BME280;36154;51.674;7.824;2023-02-19T11:46:21;101479.22;;;19.84;47.91
48872;BME280;36154;51.674;7.824;2023-02-19T11:49:13;101481.78;;;19.85;48.00
48872;BME280;36154;51.674;7.824;2023-02-19T11:57:51;101487.81;;;19.86;48.22
48872;BME280;36154;51.674;7.824;2023-02-19T12:00:23;101474.91;;;19.84;47.95
48872;BME280;36154;51.674;7.824;2023-02-19T12:06:18;101466.25;;;19.88;48.15
48872;BME280;36154;51.674;7.824;2023-02-19T12:24:54;101477.41;;;19.90;48.37
48872;BME280;36154;51.674;7.824;2023-02-19T12:35:41;101493.78;;;19.92;48.52
48872;BME280;36154;51.674;7.824;2023-02-19T12:38:29;101488.56;;;19.94;48.60
48872;BME280;36154;51.674;7.824;2023-02-19T12:44:11;101498.06;;;19.95;48.31
48872;BME280;36154;51.674;7.824;2023-02-19T12:46:40;101494.59;;;19.94;48.52
48872;BME280;36154;51.674;7.824;2023-02-19T12:49:16;101493.72;;;19.96;48.43
48872;BME280;36154;51.674;7.824;2023-02-19T12:51:48;101492.88;;;19.95;48.54
48872;BME280;36154;51.674;7.824;2023-02-19T12:54:24;101500.63;;;19.97;48.41
48872;BME280;36154;51.674;7.824;2023-02-19T12:57:01;101507.50;;;19.98;48.49
48872;BME280;36154;51.674;7.824;2023-02-19T13:02:21;101524.75;;;19.99;48.31
48872;BME280;36154;51.674;7.824;2023-02-19T13:07:34;101525.59;;;19.98;48.56
48872;BME280;36154;51.674;7.824;2023-02-19T13:12:38;101521.25;;;20.00;48.38
48872;BME280;36154;51.674;7.824;2023-02-19T13:15:20;101528.16;;;20.01;48.48
48872;BME280;36154;51.674;7.824;2023-02-19T13:20:34;101528.16;;;20.01;48.50
48872;BME280;36154;51.674;7.824;2023-02-19T13:36:36;101531.56;;;20.04;48.65
48872;BME280;36154;51.674;7.824;2023-02-19T13:39:05;101540.19;;;20.05;48.96
48872;BME280;36154;51.674;7.824;2023-02-19T13:41:37;101547.91;;;20.06;49.11
48872;BME280;36154;51.674;7.824;2023-02-19T13:44:06;101538.47;;;20.05;48.94
48872;BME280;36154;51.674;7.824;2023-02-19T13:46:40;101536.72;;;20.06;49.20
48872;BME280;36154;51.674;7.824;2023-02-19T13:51:53;101549.63;;;20.07;49.41
48872;BME280;36154;51.674;7.824;2023-02-19T13:56:53;101559.09;;;20.10;49.93
48872;BME280;36154;51.674;7.824;2023-02-19T13:59:37;101557.38;;;20.10;50.17
48872;BME280;36154;51.674;7.824;2023-02-19T14:27:42;101581.47;;;20.14;50.25
48872;BME280;36154;51.674;7.824;2023-02-19T14:30:11;101590.97;;;20.13;50.57
48872;BME280;36154;51.674;7.824;2023-02-19T14:32:39;101591.81;;;20.14;50.47
48872;BME280;36154;51.674;7.824;2023-02-19T14:35:05;101583.25;;;20.10;50.64
48872;BME280;36154;51.674;7.824;2023-02-19T14:37:32;101596.97;;;20.16;50.48
48872;BME280;36154;51.674;7.824;2023-02-19T14:39:58;101600.41;;;20.16;50.40
48872;BME280;36154;51.674;7.824;2023-02-19T14:42:25;101596.97;;;20.17;50.41
48872;BME280;36154;51.674;7.824;2023-02-19T14:45:00;101590.94;;;20.17;50.38
48872;BME280;36154;51.674;7.824;2023-02-19T14:47:29;101585.75;;;20.17;50.31
48872;BME280;36154;51.674;7.824;2023-02-19T14:50:06;101595.22;;;20.16;50.48
48872;BME280;36154;51.674;7.824;2023-02-19T14:52:43;101590.06;;;20.16;50.27
48872;BME280;36154;51.674;7.824;2023-02-19T14:55:26;101578.00;;;20.15;50.32
48872;BME280;36154;51.674;7.824;2023-02-19T14:57:54;101588.38;;;20.15;50.25
48872;BME280;36154;51.674;7.824;2023-02-19T15:02:48;101573.69;;;20.14;50.21
48872;BME280;36154;51.674;7.824;2023-02-19T15:05:22;101571.13;;;20.14;50.31
48872;BME280;36154;51.674;7.824;2023-02-19T15:07:48;101576.28;;;20.14;50.32
48872;BME280;36154;51.674;7.824;2023-02-19T15:10:15;101565.13;;;20.10;50.36
48872;BME280;36154;51.674;7.824;2023-02-19T15:12:50;101550.44;;;20.11;50.26
48872;BME280;36154;51.674;7.824;2023-02-19T15:15:19;101550.44;;;20.11;50.26
48872;BME280;36154;51.674;7.824;2023-02-19T15:17:46;101548.75;;;20.10;50.42
48872;BME280;36154;51.674;7.824;2023-02-19T15:20:17;101544.44;;;20.09;50.25